Terminal Aerodrome Forecast
Issued by NWS Charleston, WV

Current Version | Previous Version | Graphics & Text | Print | Product List | Glossary On
Versions: 1 2 3 4 5 6 7 8 9 10 11 12 13 14 15 16 17 18 19 20 21 22 23 24 25 26 27 28
935
FTUS41 KRLX 211748
TAFCRW
TAF
KCRW 211748Z 2118/2218 25005KT P6SM SHRA OVC035
      TEMPO 2118/2122 4SM SHRA BKN015 OVC025
     FM212200 28005KT P6SM OVC025
     FM220000 VRB03KT P6SM OVC015
     FM220900 VRB03KT 6SM BR FEW001 BKN008
     FM221400 31005KT P6SM BKN015 OVC025
     FM221600 33007KT P6SM BKN060=

USA.gov is the U.S. government's official web portal to all federal, state and local government web resources and services.